createdAt,value
2022-09-30T00:01:15.688Z,26.30
2022-09-30T00:03:49.910Z,28.80
2022-09-30T00:06:31.343Z,25.20
2022-09-30T00:13:44.947Z,30.40
2022-09-30T00:16:23.643Z,30.40
2022-09-30T00:19:16.344Z,27.00
2022-09-30T00:21:48.942Z,24.30
2022-09-30T00:24:25.593Z,25.40
2022-09-30T00:27:25.207Z,29.20
2022-09-30T00:29:55.698Z,32.90
2022-09-30T00:32:37.869Z,33.40
2022-09-30T00:35:09.055Z,32.20
2022-09-30T00:37:37.981Z,25.20
2022-09-30T00:41:06.473Z,27.40
2022-09-30T00:44:19.753Z,29.50
2022-09-30T00:47:02.859Z,25.90
2022-09-30T00:50:11.460Z,27.20
2022-09-30T00:53:12.633Z,23.90
2022-09-30T00:56:24.725Z,29.40
2022-09-30T00:59:00.445Z,35.10
2022-09-30T01:01:33.264Z,30.50
2022-09-30T01:04:08.562Z,36.90
2022-09-30T01:06:38.640Z,26.90
2022-09-30T01:09:10.523Z,27.30
2022-09-30T01:11:39.952Z,29.70
2022-09-30T01:14:21.621Z,27.40
2022-09-30T01:17:09.319Z,27.10
2022-09-30T01:19:38.625Z,27.10
2022-09-30T01:22:27.914Z,27.40
2022-09-30T01:25:27.264Z,29.10
2022-09-30T01:28:40.321Z,32.40
2022-09-30T01:31:46.605Z,29.00
2022-09-30T01:34:45.407Z,21.50
2022-09-30T01:37:46.047Z,17.70
2022-09-30T01:40:33.480Z,27.70
2022-09-30T01:43:16.969Z,18.10
2022-09-30T01:45:59.887Z,16.40
2022-09-30T01:48:47.348Z,22.60
2022-09-30T01:51:32.892Z,26.80
2022-09-30T01:54:13.228Z,47.70
2022-09-30T01:57:43.252Z,37.40
2022-09-30T02:06:58.121Z,18.40
2022-09-30T02:09:37.373Z,19.00
2022-09-30T02:12:12.992Z,21.20
2022-09-30T02:14:47.108Z,27.10
2022-09-30T02:17:33.832Z,25.70
2022-09-30T02:20:15.975Z,21.90
2022-09-30T02:22:52.585Z,26.40
2022-09-30T02:25:30.128Z,21.90
2022-09-30T02:28:04.994Z,19.20
2022-09-30T02:30:37.018Z,22.30
2022-09-30T02:33:34.914Z,22.30
2022-09-30T02:36:31.290Z,22.50
2022-09-30T02:39:17.184Z,21.00
2022-09-30T02:41:59.876Z,21.20
2022-09-30T02:45:13.498Z,23.10
2022-09-30T03:04:31.857Z,25.10
2022-09-30T03:07:03.148Z,17.50
2022-09-30T03:09:37.324Z,20.60
2022-09-30T03:16:45.330Z,29.00
2022-09-30T03:19:59.058Z,25.80
2022-09-30T03:23:15.440Z,22.40
2022-09-30T03:30:29.513Z,20.40
2022-09-30T05:23:20.946Z,40.20
2022-09-30T05:25:52.356Z,40.10
2022-09-30T05:28:22.868Z,33.50
2022-09-30T05:31:00.748Z,73.60
2022-09-30T05:33:30.899Z,239.30
2022-09-30T05:36:11.790Z,349.60
2022-09-30T05:38:42.931Z,273.60
2022-09-30T05:41:15.658Z,179.20
2022-09-30T05:43:47.612Z,75.80
2022-09-30T05:46:21.779Z,37.30
2022-09-30T05:48:53.919Z,24.00
2022-09-30T05:51:24.293Z,20.60
2022-09-30T05:53:52.006Z,21.70
2022-09-30T05:56:22.116Z,18.20
2022-09-30T05:58:51.326Z,22.60
2022-09-30T06:01:20.573Z,26.50
2022-09-30T06:03:51.696Z,34.30
2022-09-30T06:06:22.684Z,34.60
2022-09-30T06:08:51.739Z,22.80
2022-09-30T06:11:23.173Z,28.90
2022-09-30T06:13:52.118Z,22.80
2022-09-30T06:16:23.699Z,22.00
2022-09-30T06:19:16.984Z,22.10
2022-09-30T06:21:45.356Z,28.70
2022-09-30T06:24:18.768Z,31.20
2022-09-30T06:26:51.593Z,25.00
2022-09-30T06:29:22.160Z,26.50
2022-09-30T06:31:51.914Z,25.60
2022-09-30T06:34:22.135Z,28.20
2022-09-30T06:36:53.373Z,26.10
2022-09-30T06:39:26.754Z,27.10
2022-09-30T06:42:01.232Z,17.60
2022-09-30T06:44:33.933Z,18.90
2022-09-30T06:47:04.244Z,18.20
2022-09-30T06:49:47.147Z,25.40
2022-09-30T06:52:17.111Z,27.00
2022-09-30T06:54:49.557Z,31.90
2022-09-30T06:57:29.697Z,25.80
2022-09-30T07:00:20.385Z,28.90
2022-09-30T07:02:52.895Z,22.50
2022-09-30T07:05:42.612Z,22.00
2022-09-30T07:08:12.261Z,18.70
2022-09-30T07:10:46.338Z,17.50
2022-09-30T07:13:17.520Z,16.30
2022-09-30T07:15:46.322Z,16.50
2022-09-30T07:18:16.019Z,16.90
2022-09-30T07:20:53.452Z,18.70
2022-09-30T07:23:29.646Z,16.00
2022-09-30T07:26:04.435Z,15.90
2022-09-30T07:28:35.970Z,17.20
2022-09-30T07:31:31.456Z,17.20
2022-09-30T07:34:02.812Z,19.10
2022-09-30T07:36:33.783Z,20.50
2022-09-30T07:39:11.067Z,18.40
2022-09-30T07:41:41.024Z,17.20
2022-09-30T07:44:14.132Z,18.20
2022-09-30T07:46:45.514Z,17.10
2022-09-30T07:49:24.272Z,17.80
2022-09-30T07:51:55.635Z,20.40
2022-09-30T07:54:27.647Z,20.70
2022-09-30T07:57:09.619Z,19.50
2022-09-30T07:59:42.603Z,22.00
2022-09-30T08:02:16.601Z,17.50
2022-09-30T08:04:46.508Z,24.40
2022-09-30T08:07:19.546Z,17.10
2022-09-30T08:09:48.054Z,15.60
2022-09-30T08:12:17.794Z,37.50
2022-09-30T08:14:48.274Z,14.30
2022-09-30T08:17:15.963Z,15.90
2022-09-30T08:19:44.561Z,15.40
2022-09-30T08:22:16.312Z,13.60
2022-09-30T08:24:44.744Z,12.20
2022-09-30T08:27:14.882Z,11.70
2022-09-30T08:29:54.813Z,13.30
2022-09-30T08:32:28.298Z,15.50
2022-09-30T08:34:58.513Z,11.80
2022-09-30T08:37:26.390Z,11.30
2022-09-30T08:39:55.945Z,12.20
2022-09-30T08:42:57.544Z,11.90
2022-09-30T08:45:34.337Z,13.00
2022-09-30T08:51:20.771Z,13.50
2022-09-30T08:53:49.737Z,13.70
2022-09-30T08:56:30.104Z,14.50
2022-09-30T08:59:24.534Z,15.10
2022-09-30T09:05:54.125Z,33.80
2022-09-30T09:08:38.519Z,19.90
2022-09-30T09:11:30.389Z,15.20
2022-09-30T09:14:06.493Z,13.50
2022-09-30T09:16:50.934Z,13.00
2022-09-30T09:23:33.282Z,22.20
2022-09-30T09:26:03.032Z,18.40
2022-09-30T09:28:59.004Z,14.50
2022-09-30T09:31:28.278Z,96.40
2022-09-30T09:34:09.800Z,20.30
2022-09-30T09:36:43.310Z,13.70
2022-09-30T09:39:24.532Z,14.90
2022-09-30T09:42:19.403Z,12.90
2022-09-30T09:45:23.314Z,18.80
2022-09-30T09:47:53.012Z,14.90
2022-09-30T09:50:48.915Z,13.40
2022-09-30T09:53:46.799Z,19.70
2022-09-30T09:56:22.905Z,17.70
2022-09-30T09:59:15.283Z,13.00
2022-09-30T10:01:50.199Z,12.90
2022-09-30T10:04:25.682Z,22.80
2022-09-30T10:07:12.694Z,48.70
2022-09-30T10:09:42.902Z,14.90
2022-09-30T10:12:14.269Z,13.10
2022-09-30T10:15:13.272Z,15.10
2022-09-30T10:17:51.964Z,14.00
2022-09-30T10:20:29.549Z,13.80
2022-09-30T10:23:03.387Z,14.00
2022-09-30T10:28:04.414Z,13.40
2022-09-30T10:30:41.737Z,14.90
2022-09-30T10:33:17.885Z,15.00
2022-09-30T10:36:04.892Z,15.60
2022-09-30T10:38:34.552Z,14.80
2022-09-30T10:41:04.724Z,12.70
2022-09-30T10:43:45.222Z,13.40
2022-09-30T10:46:27.218Z,15.30
2022-09-30T10:48:59.302Z,14.00
2022-09-30T10:51:33.613Z,14.70
2022-09-30T10:54:02.397Z,15.10
2022-09-30T10:56:37.647Z,13.50
2022-09-30T10:59:16.239Z,12.70
2022-09-30T11:01:57.345Z,12.40
2022-09-30T11:04:39.358Z,11.50
2022-09-30T11:07:26.971Z,11.00
2022-09-30T11:09:58.638Z,12.90
2022-09-30T11:12:44.913Z,15.40
2022-09-30T11:15:30.781Z,16.00
2022-09-30T11:18:29.230Z,16.80
2022-09-30T11:21:03.888Z,17.00
2022-09-30T11:23:56.882Z,25.20
2022-09-30T11:26:44.897Z,26.30
2022-09-30T11:29:35.923Z,17.90
2022-09-30T11:32:27.907Z,16.50
2022-09-30T11:35:27.741Z,15.80
2022-09-30T11:38:08.168Z,17.80
2022-09-30T11:41:35.513Z,27.70
2022-09-30T11:44:26.076Z,16.80
2022-09-30T11:46:57.024Z,17.00
2022-09-30T11:49:52.045Z,14.70
2022-09-30T11:52:35.425Z,15.10
2022-09-30T11:55:31.958Z,22.60
2022-09-30T11:58:41.058Z,15.70
2022-09-30T12:01:33.546Z,46.70
2022-09-30T12:04:25.734Z,16.20
2022-09-30T12:07:19.983Z,17.90
2022-09-30T12:10:04.298Z,20.40
2022-09-30T12:12:33.267Z,19.90
2022-09-30T12:15:05.534Z,17.60
2022-09-30T12:17:42.458Z,18.70
2022-09-30T12:20:21.877Z,20.40
2022-09-30T12:22:53.785Z,20.90
2022-09-30T12:25:32.455Z,18.00
2022-09-30T12:28:32.175Z,28.50
2022-09-30T12:31:26.663Z,20.00
2022-09-30T12:34:13.697Z,17.70
2022-09-30T12:37:01.861Z,18.10
2022-09-30T12:39:41.829Z,15.20
2022-09-30T12:42:33.116Z,16.20
2022-09-30T12:45:30.012Z,42.30
2022-09-30T12:48:22.953Z,15.70
2022-09-30T12:50:58.815Z,27.20
2022-09-30T12:53:32.306Z,14.30
2022-09-30T12:56:23.135Z,15.70
2022-09-30T12:59:20.818Z,88.50
2022-09-30T13:02:34.522Z,12.60
2022-09-30T13:05:42.577Z,16.00
2022-09-30T13:08:57.753Z,15.40
2022-09-30T13:11:56.551Z,22.70
2022-09-30T13:15:12.342Z,69.40
2022-09-30T13:17:41.505Z,30.50
2022-09-30T13:21:03.268Z,17.60
2022-09-30T13:23:39.328Z,54.00
2022-09-30T13:26:38.892Z,46.50
2022-09-30T13:29:08.572Z,25.70
2022-09-30T13:31:47.102Z,30.40
2022-09-30T13:34:44.009Z,47.70
2022-09-30T13:37:40.327Z,28.10
2022-09-30T13:43:42.547Z,19.40
2022-09-30T13:46:37.378Z,32.10
2022-09-30T13:49:38.996Z,20.00
2022-09-30T13:53:02.667Z,208.40
2022-09-30T13:55:55.250Z,41.10
2022-09-30T13:59:03.091Z,25.70
2022-09-30T14:01:53.987Z,41.50
2022-09-30T14:04:48.727Z,111.60
2022-09-30T14:08:10.594Z,53.20
2022-09-30T14:23:20.035Z,20.80
2022-09-30T14:26:20.505Z,24.00
2022-09-30T14:28:58.394Z,23.20
2022-09-30T14:31:30.099Z,14.50
2022-09-30T14:34:18.996Z,14.40
2022-09-30T14:36:51.136Z,44.10
2022-09-30T14:39:30.835Z,58.60
2022-09-30T14:42:05.040Z,83.80
2022-09-30T14:45:17.268Z,16.40
2022-09-30T14:47:59.959Z,13.50
2022-09-30T14:50:37.955Z,13.80
2022-09-30T14:53:31.766Z,15.20
2022-09-30T14:56:44.796Z,16.10
2022-09-30T14:59:45.181Z,15.90
2022-09-30T15:02:26.661Z,13.80
2022-09-30T15:05:01.377Z,14.60
2022-09-30T15:07:35.086Z,13.80
2022-09-30T15:10:05.621Z,13.10
2022-09-30T15:12:50.012Z,18.50
2022-09-30T15:15:37.856Z,14.40
2022-09-30T15:18:42.096Z,16.60
2022-09-30T15:21:16.161Z,39.80
2022-09-30T15:23:53.609Z,31.30
2022-09-30T15:26:27.078Z,72.00
2022-09-30T15:28:55.209Z,31.90
2022-09-30T15:31:30.054Z,24.10
2022-09-30T15:34:20.492Z,25.10
2022-09-30T15:39:49.983Z,22.60
2022-09-30T15:42:35.045Z,78.00
2022-09-30T15:45:30.885Z,36.10
2022-09-30T15:48:08.152Z,14.50
2022-09-30T15:50:48.831Z,34.60
2022-09-30T15:53:25.222Z,70.50
2022-09-30T15:55:57.664Z,61.30
2022-09-30T15:58:34.098Z,63.10
2022-09-30T16:01:25.331Z,58.90
2022-09-30T16:03:59.824Z,217.30
2022-09-30T16:06:43.062Z,279.70
2022-09-30T16:09:36.225Z,211.30
2022-09-30T16:12:10.500Z,99.70
2022-09-30T16:14:51.185Z,159.20
2022-09-30T16:17:27.631Z,45.20
2022-09-30T16:20:21.334Z,23.70
2022-09-30T16:22:55.411Z,30.60
2022-09-30T16:25:27.854Z,46.20
2022-09-30T16:28:02.547Z,55.80
2022-09-30T16:30:34.574Z,49.70
2022-09-30T16:33:06.949Z,52.80
2022-09-30T16:35:35.572Z,39.40
2022-09-30T16:38:07.512Z,38.80
2022-09-30T16:40:37.808Z,81.10
2022-09-30T16:43:12.127Z,58.50
2022-09-30T16:45:40.723Z,52.00
2022-09-30T16:48:18.677Z,29.30
2022-09-30T16:51:04.852Z,26.90
2022-09-30T16:53:33.519Z,31.60
2022-09-30T16:56:05.633Z,23.60
2022-09-30T16:58:35.245Z,30.80
2022-09-30T17:01:06.355Z,48.20
2022-09-30T17:03:36.514Z,42.80
2022-09-30T17:06:07.869Z,26.10
2022-09-30T17:08:35.960Z,37.80
2022-09-30T17:11:03.507Z,24.70
2022-09-30T17:13:33.645Z,20.30
2022-09-30T17:16:04.866Z,15.10
2022-09-30T17:19:23.096Z,13.50
2022-09-30T17:21:54.174Z,13.30
2022-09-30T17:25:06.064Z,21.40
2022-09-30T17:27:34.396Z,23.40
2022-09-30T17:30:07.403Z,21.90
2022-09-30T17:32:39.920Z,25.90
2022-09-30T17:35:13.692Z,25.60
2022-09-30T17:37:49.176Z,30.30
2022-09-30T17:40:36.446Z,17.40
2022-09-30T17:43:08.422Z,47.90
2022-09-30T17:45:43.667Z,48.10
2022-09-30T17:50:44.839Z,21.00
2022-09-30T17:53:35.430Z,19.80
2022-09-30T17:56:12.601Z,53.50
2022-09-30T17:58:42.411Z,28.40
2022-09-30T18:01:13.488Z,57.20
2022-09-30T18:03:43.001Z,44.90
2022-09-30T18:06:17.909Z,86.50
2022-09-30T18:08:51.546Z,80.70
2022-09-30T18:11:27.394Z,69.80
2022-09-30T18:14:27.787Z,122.30
2022-09-30T18:16:58.635Z,78.40
2022-09-30T18:20:26.678Z,58.20
2022-09-30T18:22:58.137Z,34.80
2022-09-30T18:25:26.142Z,39.50
2022-09-30T18:28:23.074Z,86.60
2022-09-30T18:33:43.323Z,42.40
2022-09-30T18:36:33.818Z,33.40
2022-09-30T18:39:05.001Z,48.00
2022-09-30T18:41:43.125Z,42.50
2022-09-30T18:46:58.205Z,45.70
2022-09-30T18:49:31.801Z,44.00
2022-09-30T18:52:11.507Z,46.30
2022-09-30T18:55:01.320Z,40.00
2022-09-30T18:57:32.355Z,41.70
2022-09-30T19:00:01.836Z,41.50
2022-09-30T19:02:32.568Z,48.00
2022-09-30T19:05:00.775Z,44.10
2022-09-30T19:07:31.043Z,45.30
2022-09-30T19:10:02.791Z,101.80
2022-09-30T19:12:36.152Z,140.10
2022-09-30T19:15:08.364Z,94.50
2022-09-30T19:17:37.947Z,53.60
2022-09-30T19:20:09.010Z,33.60
2022-09-30T19:22:39.958Z,27.20
2022-09-30T19:25:21.265Z,27.60
2022-09-30T19:27:56.432Z,23.80
2022-09-30T19:32:59.846Z,55.50
2022-09-30T19:35:40.081Z,158.50
2022-09-30T19:38:37.149Z,38.10
2022-09-30T19:41:10.508Z,57.30
2022-09-30T19:43:44.029Z,36.90
2022-09-30T19:46:13.441Z,38.50
2022-09-30T19:48:46.999Z,27.90
2022-09-30T19:51:20.068Z,32.20
2022-09-30T19:54:05.511Z,32.00
2022-09-30T19:56:41.108Z,31.00
2022-09-30T19:59:11.383Z,30.20
2022-09-30T20:01:44.595Z,22.10
2022-09-30T20:04:18.595Z,22.80
2022-09-30T20:06:48.481Z,22.80
2022-09-30T20:09:20.077Z,32.10
2022-09-30T20:11:50.351Z,22.40
2022-09-30T20:14:38.401Z,25.70
2022-09-30T20:17:14.066Z,21.60
2022-09-30T20:20:05.698Z,21.10
2022-09-30T20:22:53.678Z,22.30
2022-09-30T20:25:33.132Z,36.00
2022-09-30T20:28:07.458Z,26.30
2022-09-30T20:30:48.996Z,27.90
2022-09-30T20:33:25.347Z,27.00
2022-09-30T20:36:00.055Z,24.50
2022-09-30T20:38:33.446Z,38.80
2022-09-30T20:41:05.570Z,45.70
2022-09-30T20:44:17.089Z,46.30
2022-09-30T20:47:06.996Z,43.70
2022-09-30T20:49:37.327Z,44.50
2022-09-30T20:52:08.867Z,51.50
2022-09-30T20:54:39.891Z,29.90
2022-09-30T20:57:09.221Z,29.00
2022-09-30T20:59:37.767Z,28.50
2022-09-30T21:02:08.873Z,28.40
2022-09-30T21:04:37.814Z,36.80
2022-09-30T21:07:07.199Z,47.50
2022-09-30T21:09:38.377Z,39.50
2022-09-30T21:12:10.836Z,43.70
2022-09-30T21:14:43.141Z,41.50
2022-09-30T21:17:15.522Z,35.90
2022-09-30T21:19:44.391Z,31.40
2022-09-30T21:22:16.921Z,27.30
2022-09-30T21:24:45.750Z,32.60
2022-09-30T21:27:16.922Z,24.30
2022-09-30T21:29:47.727Z,26.20
2022-09-30T21:32:19.516Z,36.20
2022-09-30T21:34:49.389Z,29.10
2022-09-30T21:37:23.233Z,32.00
2022-09-30T21:39:50.877Z,30.70
2022-09-30T21:42:21.257Z,23.30
2022-09-30T21:44:50.065Z,36.20
2022-09-30T21:47:22.465Z,44.50
2022-09-30T21:49:52.982Z,28.40
2022-09-30T21:52:26.140Z,34.30
2022-09-30T21:54:59.297Z,33.50
2022-09-30T21:57:29.552Z,30.20
2022-09-30T22:00:02.296Z,28.60
2022-09-30T22:02:31.774Z,32.00
2022-09-30T22:05:42.686Z,35.90
2022-09-30T22:08:50.597Z,34.20
2022-09-30T22:11:55.733Z,30.20
2022-09-30T22:15:23.708Z,31.60
2022-09-30T22:26:07.339Z,31.20
2022-09-30T22:28:53.189Z,29.70
2022-09-30T22:32:12.427Z,28.50
2022-09-30T22:35:48.087Z,21.40
2022-09-30T22:48:52.467Z,24.80
2022-09-30T22:51:22.408Z,24.40
2022-09-30T22:53:55.316Z,22.80
2022-09-30T22:56:29.564Z,25.30
2022-09-30T22:59:00.400Z,33.70
2022-09-30T23:01:32.271Z,29.10
2022-09-30T23:04:10.375Z,34.70
2022-09-30T23:06:39.485Z,32.20
2022-09-30T23:09:12.056Z,30.90
2022-09-30T23:11:42.801Z,26.00
2022-09-30T23:14:13.078Z,26.40
2022-09-30T23:16:42.346Z,28.40
2022-09-30T23:19:13.843Z,31.60
2022-09-30T23:21:43.248Z,30.00
2022-09-30T23:24:12.659Z,29.70
2022-09-30T23:26:47.302Z,33.20
2022-09-30T23:29:17.966Z,36.90
2022-09-30T23:31:51.526Z,23.90
2022-09-30T23:34:23.487Z,26.80
2022-09-30T23:36:54.527Z,34.50
2022-09-30T23:39:23.055Z,33.70
2022-09-30T23:41:55.344Z,31.30
2022-09-30T23:44:28.204Z,36.80
2022-09-30T23:47:17.217Z,32.70
2022-09-30T23:49:46.046Z,29.90
2022-09-30T23:52:15.240Z,30.70
2022-09-30T23:54:45.565Z,29.90
2022-09-30T23:57:15.146Z,27.50
2022-09-30T23:59:47.313Z,27.60
